Terminal Aerodrome Forecast
Issued by NWS Charleston, WV

Current Version | Previous Version | Text Only | Print | Product List | Glossary Off
Versions: 1 2 3 4 5 6 7 8 9 10 11 12 13 14 15 16 17 18 19 20 21 22

000
FTUS41 KRLX 211750 CCA
TAFEKN
TAF COR
KEKN 211750Z 2118/2218 30005KT P6SM OVC015
      TEMPO 2118/2119 5SM BR BKN008 OVC015
     FM212100 27005KT P6SM BKN040
     FM220400 29010G20KT P6SM BKN040 PROB30 2204/2206 5SM -RA OVC025
     FM220600 32011G19KT P6SM BKN025
     FM221100 33010G17KT P6SM SCT025
     FM221400 33008KT P6SM FEW200=

USA.gov is the U.S. government's official web portal to all federal, state and local government web resources and services.